createdAt,value
2022-12-23T00:02:08.742Z,42.77
2022-12-23T00:04:39.394Z,40.67
2022-12-23T00:07:08.100Z,39.20
2022-12-23T00:09:37.343Z,39.90
2022-12-23T00:12:24.106Z,39.13
2022-12-23T00:15:07.443Z,37.90
2022-12-23T00:17:38.838Z,37.53
2022-12-23T00:20:08.868Z,42.77
2022-12-23T00:22:54.891Z,33.05
2022-12-23T00:25:40.662Z,36.95
2022-12-23T00:28:11.811Z,32.90
2022-12-23T00:30:45.900Z,37.20
2022-12-23T00:33:17.706Z,27.13
2022-12-23T00:35:46.797Z,33.47
2022-12-23T00:38:15.772Z,35.47
2022-12-23T00:41:01.747Z,32.60
2022-12-23T00:43:30.285Z,31.50
2022-12-23T00:45:58.726Z,41.88
2022-12-23T00:48:45.949Z,31.48
2022-12-23T00:51:14.408Z,33.30
2022-12-23T00:53:43.012Z,32.95
2022-12-23T00:56:11.586Z,28.55
2022-12-23T00:58:40.061Z,32.42
2022-12-23T01:01:25.879Z,34.00
2022-12-23T01:04:13.280Z,24.88
2022-12-23T01:06:41.787Z,31.70
2022-12-23T01:09:10.120Z,27.90
2022-12-23T01:11:38.635Z,31.60
2022-12-23T01:14:09.394Z,29.47
2022-12-23T01:16:38.696Z,31.67
2022-12-23T01:19:11.752Z,27.05
2022-12-23T01:21:40.057Z,27.65
2022-12-23T01:24:08.920Z,28.35
2022-12-23T01:26:37.371Z,26.10
2022-12-23T01:29:05.773Z,33.75
2022-12-23T01:31:34.207Z,27.20
2022-12-23T01:34:02.768Z,24.60
2022-12-23T01:36:32.780Z,24.87
2022-12-23T01:39:01.340Z,25.48
2022-12-23T01:41:48.146Z,28.00
2022-12-23T01:44:51.365Z,23.17
2022-12-23T01:47:23.755Z,39.35
2022-12-23T01:49:54.481Z,26.07
2022-12-23T01:52:24.450Z,24.58
2022-12-23T01:54:54.433Z,23.65
2022-12-23T01:57:23.520Z,20.47
2022-12-23T02:00:09.599Z,20.77
2022-12-23T02:02:55.943Z,18.60
2022-12-23T02:05:24.751Z,24.80
2022-12-23T02:08:13.051Z,21.75
2022-12-23T02:10:53.512Z,25.70
2022-12-23T02:13:27.891Z,21.08
2022-12-23T02:16:17.822Z,21.77
2022-12-23T02:19:03.245Z,26.20
2022-12-23T02:21:38.788Z,24.00
2022-12-23T02:24:32.297Z,22.23
2022-12-23T02:27:11.844Z,22.20
2022-12-23T02:30:13.617Z,24.80
2022-12-23T02:32:56.346Z,21.30
2022-12-23T02:35:30.126Z,21.77
2022-12-23T02:38:04.290Z,25.63
2022-12-23T02:40:37.559Z,22.37
2022-12-23T02:43:08.515Z,24.30
2022-12-23T02:45:41.310Z,23.20
2022-12-23T02:48:14.693Z,22.30
2022-12-23T02:50:44.567Z,23.27
2022-12-23T02:53:17.887Z,23.00
2022-12-23T02:55:47.061Z,19.43
2022-12-23T02:58:17.893Z,15.13
2022-12-23T03:00:47.389Z,9.37
2022-12-23T03:03:21.352Z,16.48
2022-12-23T03:05:51.722Z,17.52
2022-12-23T03:08:23.566Z,18.70
2022-12-23T03:11:00.692Z,19.00
2022-12-23T03:13:47.984Z,18.87
2022-12-23T03:16:23.089Z,19.10
2022-12-23T03:19:04.263Z,18.37
2022-12-23T03:21:37.251Z,17.17
2022-12-23T03:24:12.282Z,18.50
2022-12-23T03:26:43.787Z,19.77
2022-12-23T03:29:15.704Z,18.63
2022-12-23T03:31:44.509Z,18.45
2022-12-23T03:34:17.099Z,19.42
2022-12-23T03:36:48.859Z,15.77
2022-12-23T03:39:20.499Z,18.40
2022-12-23T03:42:00.455Z,19.37
2022-12-23T03:44:31.665Z,18.10
2022-12-23T03:47:04.812Z,17.07
2022-12-23T03:49:38.352Z,17.73
2022-12-23T03:52:09.958Z,19.60
2022-12-23T03:54:44.444Z,19.10
2022-12-23T03:57:15.239Z,17.70
2022-12-23T03:59:45.448Z,17.37
2022-12-23T04:02:18.822Z,19.07
2022-12-23T04:04:58.980Z,18.77
2022-12-23T04:07:31.623Z,20.40
2022-12-23T04:10:00.336Z,23.13
2022-12-23T04:12:29.235Z,22.83
2022-12-23T04:14:57.538Z,20.40
2022-12-23T04:17:25.968Z,20.10
2022-12-23T04:19:56.350Z,21.97
2022-12-23T04:22:26.140Z,17.75
2022-12-23T04:24:55.491Z,19.80
2022-12-23T04:27:23.994Z,16.73
2022-12-23T04:29:52.375Z,15.70
2022-12-23T04:32:20.811Z,5.95
2022-12-23T04:34:49.284Z,15.77
2022-12-23T04:37:19.058Z,13.80
2022-12-23T04:39:48.669Z,13.27
2022-12-23T04:42:17.645Z,13.30
2022-12-23T04:44:45.912Z,14.90
2022-12-23T04:47:14.236Z,17.90
2022-12-23T04:49:42.551Z,29.70
2022-12-23T04:52:10.943Z,30.70
2022-12-23T04:54:45.979Z,32.15
2022-12-23T04:57:14.920Z,29.23
2022-12-23T04:59:43.437Z,29.27
2022-12-23T05:02:12.116Z,27.70
2022-12-23T05:04:40.640Z,27.23
2022-12-23T05:07:08.981Z,31.00
2022-12-23T05:09:37.312Z,28.05
2022-12-23T05:12:07.813Z,29.30
2022-12-23T05:14:36.260Z,32.35
2022-12-23T05:17:07.733Z,30.73
2022-12-23T05:19:36.476Z,31.13
2022-12-23T05:22:04.982Z,30.17
2022-12-23T05:24:37.723Z,30.08
2022-12-23T05:27:07.615Z,29.40
2022-12-23T05:29:37.354Z,28.30
2022-12-23T05:32:06.870Z,29.37
2022-12-23T05:34:35.448Z,29.03
2022-12-23T05:37:04.797Z,27.45
2022-12-23T05:39:33.124Z,32.20
2022-12-23T05:42:01.491Z,29.13
2022-12-23T05:44:31.327Z,27.80
2022-12-23T05:46:59.589Z,25.07
2022-12-23T05:49:28.070Z,27.60
2022-12-23T05:51:56.362Z,26.40
2022-12-23T05:54:24.771Z,26.83
2022-12-23T05:56:53.496Z,29.77
2022-12-23T05:59:23.516Z,34.23
2022-12-23T06:01:56.243Z,28.43
2022-12-23T06:04:25.710Z,23.30
2022-12-23T06:06:55.780Z,23.25
2022-12-23T06:09:27.698Z,22.30
2022-12-23T06:11:57.320Z,22.93
2022-12-23T06:14:29.079Z,23.25
2022-12-23T06:17:02.514Z,20.77
2022-12-23T06:19:31.041Z,22.15
2022-12-23T06:21:59.739Z,21.73
2022-12-23T06:24:28.779Z,21.17
2022-12-23T06:26:57.825Z,21.77
2022-12-23T06:29:26.245Z,22.23
2022-12-23T06:31:54.711Z,21.00
2022-12-23T06:34:24.649Z,23.25
2022-12-23T06:36:53.528Z,24.50
2022-12-23T06:39:21.859Z,22.98
2022-12-23T06:41:50.184Z,26.35
2022-12-23T06:44:18.664Z,29.07
2022-12-23T06:46:48.789Z,27.37
2022-12-23T06:49:18.544Z,28.47
2022-12-23T06:51:48.282Z,27.30
2022-12-23T06:54:16.654Z,26.80
2022-12-23T06:56:45.253Z,26.20
2022-12-23T06:59:13.910Z,28.80
2022-12-23T07:01:42.929Z,31.87
2022-12-23T07:04:11.582Z,30.30
2022-12-23T07:06:40.387Z,29.80
2022-12-23T07:09:12.589Z,27.55
2022-12-23T07:11:41.788Z,26.33
2022-12-23T07:14:10.439Z,30.60
2022-12-23T07:16:38.868Z,30.30
2022-12-23T07:19:07.457Z,27.30
2022-12-23T07:21:36.786Z,25.75
2022-12-23T07:24:05.878Z,27.63
2022-12-23T07:26:36.019Z,26.20
2022-12-23T07:29:05.294Z,26.50
2022-12-23T07:31:33.722Z,28.60
2022-12-23T07:34:02.287Z,26.60
2022-12-23T07:36:30.615Z,26.23
2022-12-23T07:38:58.988Z,27.60
2022-12-23T07:41:27.311Z,28.27
2022-12-23T07:43:56.994Z,28.50
2022-12-23T07:46:25.528Z,29.77
2022-12-23T07:48:53.896Z,29.83
2022-12-23T07:51:22.295Z,33.93
2022-12-23T07:53:52.336Z,28.23
2022-12-23T07:56:21.001Z,34.07
2022-12-23T07:58:50.590Z,36.60
2022-12-23T08:01:20.879Z,33.33
2022-12-23T08:03:49.524Z,34.33
2022-12-23T08:06:18.613Z,33.50
2022-12-23T08:08:47.776Z,32.77
2022-12-23T08:11:17.976Z,33.30
2022-12-23T08:13:48.353Z,33.90
2022-12-23T08:16:16.890Z,32.40
2022-12-23T08:18:46.682Z,32.67
2022-12-23T08:21:17.605Z,33.70
2022-12-23T08:23:48.398Z,34.97
2022-12-23T08:26:18.881Z,37.73
2022-12-23T08:28:47.878Z,41.40
2022-12-23T08:31:18.541Z,37.67
2022-12-23T08:33:50.898Z,37.00
2022-12-23T08:36:23.266Z,39.37
2022-12-23T08:38:52.387Z,42.37
2022-12-23T08:41:24.188Z,41.63
2022-12-23T08:43:54.303Z,39.77
2022-12-23T08:46:25.473Z,36.60
2022-12-23T08:48:55.693Z,38.97
2022-12-23T08:51:25.570Z,37.20
2022-12-23T08:54:00.154Z,34.03
2022-12-23T08:56:31.043Z,35.13
2022-12-23T08:59:00.245Z,33.30
2022-12-23T09:01:31.925Z,30.40
2022-12-23T09:04:03.411Z,27.07
2022-12-23T09:06:34.649Z,23.43
2022-12-23T09:09:03.138Z,19.10
2022-12-23T09:11:31.715Z,18.93
2022-12-23T09:14:01.717Z,18.70
2022-12-23T09:16:30.503Z,16.07
2022-12-23T09:18:59.238Z,16.80
2022-12-23T09:21:30.038Z,17.00
2022-12-23T09:23:58.425Z,14.40
2022-12-23T09:26:28.337Z,14.07
2022-12-23T09:28:57.438Z,17.43
2022-12-23T09:31:34.015Z,16.97
2022-12-23T09:34:04.558Z,15.23
2022-12-23T09:36:39.711Z,15.10
2022-12-23T09:39:08.192Z,14.70
2022-12-23T09:42:01.878Z,17.20
2022-12-23T09:44:43.261Z,17.97
2022-12-23T09:47:15.659Z,16.60
2022-12-23T09:49:50.997Z,18.03
2022-12-23T09:52:26.665Z,19.47
2022-12-23T09:54:56.669Z,20.93
2022-12-23T09:57:32.136Z,20.90
2022-12-23T10:00:08.229Z,20.43
2022-12-23T10:02:44.771Z,20.20
2022-12-23T10:05:22.267Z,20.77
2022-12-23T10:07:55.051Z,20.23
2022-12-23T10:10:30.319Z,20.70
2022-12-23T10:12:59.941Z,19.83
2022-12-23T10:15:31.418Z,20.90
2022-12-23T10:18:04.118Z,18.60
2022-12-23T10:20:39.264Z,19.00
2022-12-23T10:23:15.853Z,19.43
2022-12-23T10:25:49.952Z,16.73
2022-12-23T10:28:19.045Z,16.83
2022-12-23T10:31:23.781Z,15.77
2022-12-23T10:33:51.559Z,16.53
2022-12-23T10:36:29.021Z,15.27
2022-12-23T10:39:03.037Z,14.77
2022-12-23T10:41:37.925Z,15.20
2022-12-23T10:44:31.074Z,14.90
2022-12-23T10:47:04.776Z,14.40
2022-12-23T10:49:41.898Z,16.97
2022-12-23T10:52:14.630Z,14.07
2022-12-23T10:54:46.976Z,14.03
2022-12-23T10:57:19.204Z,12.37
2022-12-23T10:59:53.203Z,13.47
2022-12-23T11:02:40.261Z,13.63
2022-12-23T11:05:14.601Z,13.20
2022-12-23T11:07:46.508Z,13.30
2022-12-23T11:10:21.513Z,12.53
2022-12-23T11:12:55.627Z,10.70
2022-12-23T11:15:30.909Z,10.50
2022-12-23T11:18:08.848Z,10.40
2022-12-23T11:20:39.063Z,11.43
2022-12-23T11:23:25.820Z,10.57
2022-12-23T11:26:02.367Z,10.10
2022-12-23T11:28:31.774Z,9.73
2022-12-23T11:31:05.792Z,10.20
2022-12-23T11:33:36.588Z,10.00
2022-12-23T11:36:07.771Z,9.70
2022-12-23T11:38:37.784Z,11.07
2022-12-23T11:41:08.265Z,10.70
2022-12-23T11:43:36.780Z,8.73
2022-12-23T11:46:27.238Z,10.97
2022-12-23T11:49:15.783Z,10.20
2022-12-23T11:51:45.334Z,10.10
2022-12-23T11:54:19.190Z,10.07
2022-12-23T11:56:53.154Z,9.70
2022-12-23T11:59:34.217Z,10.40
2022-12-23T12:02:05.314Z,9.30
2022-12-23T12:04:36.595Z,9.73
2022-12-23T12:07:05.529Z,10.10
2022-12-23T12:09:35.958Z,10.40
2022-12-23T12:12:10.307Z,9.30
2022-12-23T12:14:43.445Z,8.83
2022-12-23T12:17:17.290Z,9.33
2022-12-23T12:19:55.636Z,9.50
2022-12-23T12:22:33.228Z,9.40
2022-12-23T12:25:08.070Z,9.50
2022-12-23T12:27:42.805Z,10.00
2022-12-23T12:30:20.265Z,11.10
2022-12-23T12:32:55.868Z,9.60
2022-12-23T12:35:29.077Z,10.33
2022-12-23T12:38:01.844Z,10.47
2022-12-23T12:40:34.275Z,9.40
2022-12-23T12:43:08.684Z,9.07
2022-12-23T12:45:42.173Z,9.10
2022-12-23T12:48:39.079Z,10.00
2022-12-23T12:51:15.075Z,9.07
2022-12-23T12:53:52.444Z,8.87
2022-12-23T12:56:26.860Z,9.87
2022-12-23T12:58:56.649Z,10.10
2022-12-23T13:01:37.200Z,9.90
2022-12-23T13:04:30.096Z,8.70
2022-12-23T13:07:04.064Z,9.00
2022-12-23T13:09:41.289Z,9.50
2022-12-23T13:12:15.984Z,8.30
2022-12-23T13:14:56.232Z,9.20
2022-12-23T13:17:28.149Z,8.10
2022-12-23T13:20:01.780Z,9.00
2022-12-23T13:22:34.377Z,8.73
2022-12-23T13:25:06.280Z,9.30
2022-12-23T13:27:36.825Z,8.27
2022-12-23T13:30:12.228Z,8.53
2022-12-23T13:33:14.528Z,7.60
2022-12-23T13:36:06.269Z,8.93
2022-12-23T13:38:46.138Z,9.13
2022-12-23T13:41:26.654Z,7.90
2022-12-23T13:43:57.595Z,8.83
2022-12-23T13:46:38.896Z,9.53
2022-12-23T13:49:11.825Z,8.33
2022-12-23T13:51:45.594Z,8.50
2022-12-23T13:54:21.659Z,8.07
2022-12-23T13:56:55.064Z,8.47
2022-12-23T13:59:25.601Z,9.77
2022-12-23T14:01:55.555Z,9.40
2022-12-23T14:04:33.444Z,8.30
2022-12-23T14:07:05.287Z,8.50
2022-12-23T14:09:38.048Z,7.83
2022-12-23T14:12:21.661Z,7.20
2022-12-23T14:15:15.730Z,7.73
2022-12-23T14:17:53.153Z,7.30
2022-12-23T14:20:31.519Z,7.00
2022-12-23T14:23:12.382Z,7.83
2022-12-23T14:25:56.133Z,7.30
2022-12-23T14:28:38.894Z,7.10
2022-12-23T14:31:08.117Z,8.43
2022-12-23T14:33:39.221Z,7.80
2022-12-23T14:36:24.387Z,8.33
2022-12-23T14:39:31.266Z,7.47
2022-12-23T14:42:06.037Z,6.90
2022-12-23T14:44:49.925Z,6.90
2022-12-23T14:47:34.200Z,6.77
2022-12-23T14:50:57.637Z,7.03
2022-12-23T14:53:26.897Z,6.70
2022-12-23T14:56:23.958Z,7.20
2022-12-23T14:59:02.257Z,7.27
2022-12-23T15:01:35.078Z,6.30
2022-12-23T15:04:10.344Z,7.43
2022-12-23T15:06:42.964Z,7.87
2022-12-23T15:09:20.717Z,6.93
2022-12-23T15:11:49.747Z,8.50
2022-12-23T15:14:26.471Z,8.10
2022-12-23T15:16:57.586Z,7.90
2022-12-23T15:19:28.781Z,7.27
2022-12-23T15:22:19.934Z,7.23
2022-12-23T15:24:51.442Z,8.77
2022-12-23T15:27:30.117Z,8.10
2022-12-23T15:30:00.445Z,8.57
2022-12-23T15:32:29.797Z,8.40
2022-12-23T15:35:03.557Z,7.70
2022-12-23T15:37:35.586Z,8.50
2022-12-23T15:40:12.687Z,8.87
2022-12-23T15:42:48.699Z,9.10
2022-12-23T15:45:32.775Z,8.80
2022-12-23T15:48:02.021Z,9.33
2022-12-23T15:50:41.795Z,9.13
2022-12-23T15:53:17.867Z,10.00
2022-12-23T15:55:49.858Z,9.53
2022-12-23T15:58:21.994Z,9.23
2022-12-23T16:00:55.908Z,9.90
2022-12-23T16:03:36.866Z,10.03
2022-12-23T16:06:25.596Z,10.80
2022-12-23T16:09:03.094Z,12.33
2022-12-23T16:11:51.905Z,9.60
2022-12-23T16:14:30.053Z,10.53
2022-12-23T16:17:00.183Z,11.90
2022-12-23T16:19:41.785Z,12.00
2022-12-23T16:22:19.718Z,11.33
2022-12-23T16:24:55.291Z,11.60
2022-12-23T16:27:32.053Z,11.53
2022-12-23T16:30:04.533Z,10.63
2022-12-23T16:32:33.365Z,11.77
2022-12-23T16:35:11.614Z,10.33
2022-12-23T16:37:43.403Z,12.67
2022-12-23T16:40:16.763Z,11.37
2022-12-23T16:42:46.323Z,10.80
2022-12-23T16:45:14.728Z,10.80
2022-12-23T16:47:44.349Z,11.20
2022-12-23T16:50:14.602Z,13.17
2022-12-23T16:52:43.141Z,13.90
2022-12-23T16:55:20.791Z,14.80
2022-12-23T16:57:50.652Z,16.20
2022-12-23T17:00:22.081Z,17.37
2022-12-23T17:02:50.596Z,20.07
2022-12-23T17:05:21.008Z,19.73
2022-12-23T17:07:49.371Z,28.03
2022-12-23T17:10:19.849Z,19.10
2022-12-23T17:12:48.585Z,20.40
2022-12-23T17:15:19.492Z,22.33
2022-12-23T17:17:49.453Z,19.97
2022-12-23T17:20:18.031Z,19.40
2022-12-23T17:22:48.594Z,16.73
2022-12-23T17:25:26.326Z,17.83
2022-12-23T17:27:55.779Z,16.00
2022-12-23T17:30:25.990Z,15.70
2022-12-23T17:32:58.871Z,13.07
2022-12-23T17:35:27.978Z,14.60
2022-12-23T17:37:56.952Z,16.40
2022-12-23T17:40:26.679Z,15.50
2022-12-23T17:42:55.141Z,14.37
2022-12-23T17:45:25.943Z,15.70
2022-12-23T17:47:54.812Z,17.80
2022-12-23T17:50:23.980Z,16.87
2022-12-23T17:52:52.731Z,16.60
2022-12-23T17:55:23.918Z,17.20
2022-12-23T17:57:54.927Z,18.37
2022-12-23T18:00:31.969Z,17.30
2022-12-23T18:03:03.147Z,18.43
2022-12-23T18:05:33.091Z,15.50
2022-12-23T18:08:02.459Z,14.30
2022-12-23T18:10:35.322Z,14.70
2022-12-23T18:13:07.699Z,15.50
2022-12-23T18:15:37.301Z,16.50
2022-12-23T18:18:15.271Z,16.43
2022-12-23T18:20:48.796Z,14.07
2022-12-23T18:23:20.610Z,12.70
2022-12-23T18:25:48.966Z,17.50
2022-12-23T18:28:18.759Z,13.90
2022-12-23T18:30:47.193Z,14.67
2022-12-23T18:33:15.629Z,15.30
2022-12-23T18:35:45.255Z,14.97
2022-12-23T18:38:14.046Z,14.60
2022-12-23T18:40:43.024Z,11.60
2022-12-23T18:43:21.186Z,8.80
2022-12-23T18:45:53.157Z,11.33
2022-12-23T18:48:22.461Z,17.87
2022-12-23T18:50:51.011Z,18.43
2022-12-23T18:53:24.718Z,17.67
2022-12-23T18:55:54.438Z,18.10
2022-12-23T18:58:24.657Z,16.90
2022-12-23T19:00:54.384Z,14.23
2022-12-23T19:03:25.681Z,14.87
2022-12-23T19:05:55.415Z,15.27
2022-12-23T19:08:26.972Z,16.63
2022-12-23T19:10:56.596Z,16.63
2022-12-23T19:13:27.150Z,15.87
2022-12-23T19:15:55.967Z,16.93
2022-12-23T19:18:24.550Z,16.37
2022-12-23T19:20:53.100Z,15.00
2022-12-23T19:23:21.457Z,15.97
2022-12-23T19:25:55.237Z,15.73
2022-12-23T19:28:24.248Z,18.03
2022-12-23T19:30:54.206Z,18.10
2022-12-23T19:33:22.537Z,17.77
2022-12-23T19:35:51.327Z,18.60
2022-12-23T19:38:19.865Z,17.27
2022-12-23T19:40:57.528Z,15.87
2022-12-23T19:43:26.106Z,16.33
2022-12-23T19:45:59.861Z,17.20
2022-12-23T19:48:29.168Z,23.60
2022-12-23T19:50:58.785Z,21.27
2022-12-23T19:53:27.703Z,18.63
2022-12-23T19:55:59.912Z,17.60
2022-12-23T19:58:28.374Z,17.10
2022-12-23T20:01:08.627Z,12.80
2022-12-23T20:03:37.865Z,14.03
2022-12-23T20:06:07.604Z,15.97
2022-12-23T20:08:36.412Z,14.40
2022-12-23T20:11:07.143Z,13.77
2022-12-23T20:13:37.550Z,13.47
2022-12-23T20:16:09.230Z,13.57
2022-12-23T20:18:38.313Z,13.33
2022-12-23T20:21:07.968Z,19.33
2022-12-23T20:23:37.183Z,19.10
2022-12-23T20:26:06.959Z,20.07
2022-12-23T20:28:35.631Z,21.03
2022-12-23T20:31:10.463Z,20.70
2022-12-23T20:33:40.312Z,24.10
2022-12-23T20:36:09.707Z,21.57
2022-12-23T20:38:39.863Z,20.83
2022-12-23T20:41:08.920Z,20.90
2022-12-23T20:43:38.231Z,20.37
2022-12-23T20:46:09.454Z,21.30
2022-12-23T20:48:38.394Z,21.10
2022-12-23T20:51:08.249Z,20.53
2022-12-23T20:53:37.023Z,21.13
2022-12-23T20:56:07.977Z,20.23
2022-12-23T20:58:56.322Z,20.37
2022-12-23T21:01:28.975Z,20.03
2022-12-23T21:03:58.613Z,19.47
2022-12-23T21:06:27.685Z,18.50
2022-12-23T21:08:58.943Z,19.07
2022-12-23T21:11:29.462Z,16.47
2022-12-23T21:14:06.209Z,19.30
2022-12-23T21:16:38.121Z,16.70
2022-12-23T21:19:07.116Z,17.57
2022-12-23T21:21:35.499Z,19.70
2022-12-23T21:24:05.365Z,15.53
2022-12-23T21:26:35.313Z,17.20
2022-12-23T21:29:05.635Z,15.70
2022-12-23T21:31:36.835Z,16.60
2022-12-23T21:34:05.530Z,16.37
2022-12-23T21:36:35.563Z,17.20
2022-12-23T21:39:05.592Z,17.23
2022-12-23T21:41:37.384Z,17.20
2022-12-23T21:44:06.487Z,17.40
2022-12-23T21:46:36.701Z,15.20
2022-12-23T21:49:05.296Z,17.10
2022-12-23T21:51:40.153Z,16.27
2022-12-23T21:54:10.040Z,16.33
2022-12-23T21:56:39.095Z,17.83
2022-12-23T21:59:08.782Z,15.20
2022-12-23T22:01:38.590Z,17.00
2022-12-23T22:04:08.038Z,16.63
2022-12-23T22:06:38.302Z,16.00
2022-12-23T22:09:07.871Z,18.10
2022-12-23T22:11:37.940Z,14.23
2022-12-23T22:14:08.726Z,16.63
2022-12-23T22:16:39.086Z,16.53
2022-12-23T22:19:09.955Z,16.57
2022-12-23T22:21:40.358Z,17.57
2022-12-23T22:24:09.629Z,17.93
2022-12-23T22:26:38.691Z,17.23
2022-12-23T22:29:08.263Z,18.50
2022-12-23T22:31:41.008Z,20.93
2022-12-23T22:34:11.276Z,19.67
2022-12-23T22:36:39.649Z,21.90
2022-12-23T22:39:08.549Z,19.87
2022-12-23T22:41:40.193Z,20.23
2022-12-23T22:44:09.361Z,19.90
2022-12-23T22:46:40.132Z,18.40
2022-12-23T22:49:13.402Z,18.60
2022-12-23T22:51:43.221Z,17.37
2022-12-23T22:54:12.513Z,19.20
2022-12-23T22:56:41.248Z,17.90
2022-12-23T22:59:18.325Z,17.17
2022-12-23T23:01:50.010Z,15.97
2022-12-23T23:04:19.514Z,18.10
2022-12-23T23:06:48.057Z,18.30
2022-12-23T23:09:19.451Z,17.03
2022-12-23T23:11:47.970Z,17.47
2022-12-23T23:14:16.899Z,17.30
2022-12-23T23:16:46.020Z,16.30
2022-12-23T23:19:17.334Z,16.90
2022-12-23T23:21:45.676Z,16.07
2022-12-23T23:24:14.440Z,14.30
2022-12-23T23:26:42.944Z,17.30
2022-12-23T23:29:12.983Z,16.33
2022-12-23T23:31:43.191Z,16.63
2022-12-23T23:34:13.256Z,17.37
2022-12-23T23:36:44.699Z,15.33
2022-12-23T23:39:14.335Z,15.63
2022-12-23T23:41:42.892Z,16.80
2022-12-23T23:44:11.827Z,14.17
2022-12-23T23:46:40.578Z,15.03
2022-12-23T23:49:09.627Z,16.47
2022-12-23T23:51:39.063Z,16.63
2022-12-23T23:54:09.301Z,16.90
2022-12-23T23:56:40.002Z,15.97
2022-12-23T23:59:09.508Z,15.83
